Time;durP1;ratioP1;P1;durP2;ratioP2;P2;SDS_P1;SDS_P2;PMS_P1;PMS_P2;Temp;Humidity;BMP_temperature;BMP_pressure;BME280_temperature;BME280_humidity;BME280_pressure;Samples;Min_cycle;Max_cycle;Signal;HPM_P1;HPM_P2
2022/11/29 00:01:49;;;;;;;45.88;17.23;;;9.50;99.90;;;;;;4996223;28;20027;-43
2022/11/29 00:04:14;;;;;;;47.60;17.90;;;9.40;99.90;;;;;;4996052;28;20026;-46
2022/11/29 00:06:43;;;;;;;53.47;18.00;;;9.40;99.90;;;;;;4991340;28;20022;-38
2022/11/29 00:09:11;;;;;;;42.47;17.30;;;9.40;99.90;;;;;;4992812;28;20023;-38
2022/11/29 00:14:25;;;;;;;33.72;14.55;;;9.40;99.90;;;;;;4995109;28;20557;-39
2022/11/29 00:16:53;;;;;;;34.95;15.02;;;9.40;99.90;;;;;;4990607;28;20493;-38
2022/11/29 00:19:19;;;;;;;56.92;19.88;;;9.30;99.90;;;;;;4989063;28;20483;-38
2022/11/29 00:21:44;;;;;;;50.35;19.00;;;9.30;99.90;;;;;;4995067;28;20035;-40
2022/11/29 00:24:10;;;;;;;33.28;16.00;;;9.30;99.90;;;;;;4993250;28;20042;-44
2022/11/29 00:26:36;;;;;;;34.53;13.73;;;9.30;99.90;;;;;;4977939;28;20030;-45
2022/11/29 00:29:02;;;;;;;32.35;13.45;;;9.20;99.90;;;;;;4973790;28;20403;-42
2022/11/29 00:31:30;;;;;;;37.50;14.48;;;9.20;99.90;;;;;;4973836;28;20542;-43
2022/11/29 00:33:57;;;;;;;36.58;14.88;;;9.20;99.90;;;;;;4974625;28;20077;-42
2022/11/29 00:36:23;;;;;;;49.67;18.30;;;9.20;99.90;;;;;;4989725;28;20088;-41
2022/11/29 00:38:49;;;;;;;41.85;16.65;;;9.20;99.90;;;;;;4976348;28;20483;-45
2022/11/29 00:41:14;;;;;;;54.78;21.75;;;9.20;99.90;;;;;;4975339;28;20048;-42
2022/11/29 00:43:41;;;;;;;75.85;28.40;;;9.20;99.90;;;;;;4973835;28;20046;-44
2022/11/29 00:46:07;;;;;;;62.83;24.48;;;9.20;99.90;;;;;;4971470;28;20027;-44
2022/11/29 00:48:35;;;;;;;71.85;26.42;;;9.10;99.90;;;;;;4967354;28;20030;-38
2022/11/29 00:51:02;;;;;;;93.95;29.80;;;9.10;99.90;;;;;;4963215;28;20683;-37
2022/11/29 00:53:28;;;;;;;97.68;28.42;;;9.20;99.90;;;;;;4977886;28;20026;-40
2022/11/29 00:55:53;;;;;;;94.22;26.65;;;9.20;99.90;;;;;;4974466;28;20035;-44
2022/11/29 00:58:20;;;;;;;98.90;28.13;;;9.20;99.90;;;;;;4964241;28;20418;-48
2022/11/29 01:00:46;;;;;;;77.20;23.13;;;9.10;99.90;;;;;;4941288;28;20083;-39
2022/11/29 01:03:12;;;;;;;117.13;27.30;;;9.20;99.90;;;;;;4962351;28;20042;-35
2022/11/29 01:05:39;;;;;;;95.50;24.80;;;9.20;99.90;;;;;;4973209;28;20026;-38
2022/11/29 01:08:05;;;;;;;99.55;24.30;;;9.20;99.90;;;;;;4976015;28;20545;-37
2022/11/29 01:10:30;;;;;;;116.47;28.30;;;9.30;99.90;;;;;;4968237;28;20098;-38
2022/11/29 01:12:56;;;;;;;132.02;30.17;;;9.30;99.90;;;;;;4991130;28;20030;-45
2022/11/29 01:15:22;;;;;;;83.32;22.52;;;9.20;99.90;;;;;;4969901;28;20030;-39
2022/11/29 01:17:48;;;;;;;73.55;21.17;;;9.20;99.90;;;;;;4983039;28;20061;-35
2022/11/29 01:20:14;;;;;;;62.42;20.17;;;9.20;99.90;;;;;;4971777;28;20414;-37
2022/11/29 01:22:40;;;;;;;41.90;16.08;;;9.20;99.90;;;;;;4971845;28;20026;-38
2022/11/29 01:25:06;;;;;;;41.03;14.38;;;9.30;99.90;;;;;;4989433;28;20034;-37
2022/11/29 01:27:32;;;;;;;34.35;13.25;;;9.30;99.90;;;;;;4994738;28;20467;-38
2022/11/29 01:29:58;;;;;;;31.35;12.32;;;9.30;99.90;;;;;;4993040;28;20105;-37
2022/11/29 01:32:23;;;;;;;29.50;12.43;;;9.30;99.90;;;;;;4994721;28;20374;-39
2022/11/29 01:34:49;;;;;;;47.38;14.02;;;9.30;99.90;;;;;;4989871;28;20245;-42
2022/11/29 01:37:15;;;;;;;34.30;11.98;;;9.30;99.90;;;;;;4996251;28;20026;-42
2022/11/29 01:39:40;;;;;;;49.55;13.98;;;9.30;99.90;;;;;;4974590;28;20038;-42
2022/11/29 01:42:06;;;;;;;41.08;13.82;;;9.30;99.90;;;;;;4987172;28;20034;-47
2022/11/29 01:44:31;;;;;;;40.38;15.27;;;9.30;99.90;;;;;;4992844;28;20113;-44
2022/11/29 01:46:57;;;;;;;41.30;15.52;;;9.30;99.90;;;;;;5013412;28;20057;-41
2022/11/29 01:49:33;;;;;;;42.03;14.20;;;9.30;99.90;;;;;;5003945;28;20077;-41
2022/11/29 01:52:21;;;;;;;44.65;15.88;;;9.30;99.90;;;;;;4992635;28;20101;-42
2022/11/29 01:54:49;;;;;;;;;;;9.20;99.90;;;;;;4993205;28;20050;-41
2022/11/29 01:57:17;;;;;;;51.03;15.30;;;9.20;99.90;;;;;;4991961;28;19916;-41
2022/11/29 01:59:47;;;;;;;50.38;17.42;;;9.10;99.90;;;;;;4993054;28;20471;-35
2022/11/29 02:02:29;;;;;;;37.80;15.23;;;9.00;99.90;;;;;;4992833;28;20492;-31
2022/11/29 02:04:58;;;;;;;43.78;15.20;;;9.00;99.90;;;;;;4991675;28;20501;-35
2022/11/29 02:07:23;;;;;;;50.00;14.93;;;9.00;99.90;;;;;;4993166;28;20030;-39
2022/11/29 02:09:49;;;;;;;37.97;16.65;;;9.00;99.90;;;;;;4991728;28;20739;-38
2022/11/29 02:12:27;;;;;;;41.85;15.40;;;9.00;99.90;;;;;;4993560;28;20034;-31
2022/11/29 02:15:24;;;;;;;38.95;14.82;;;9.00;99.90;;;;;;4989360;28;20072;-38
2022/11/29 02:18:02;;;;;;;37.72;14.40;;;9.00;99.90;;;;;;4993470;28;20105;-34
2022/11/29 02:20:52;;;;;;;33.42;13.45;;;9.10;99.90;;;;;;4990626;28;20125;-34
2022/11/29 02:23:38;;;;;;;30.73;13.65;;;9.00;99.90;;;;;;4992997;28;20042;-44
2022/11/29 02:26:26;;;;;;;37.58;14.77;;;9.10;99.90;;;;;;4987887;28;20466;-51
2022/11/29 02:29:29;;;;;;;44.35;13.73;;;9.10;99.90;;;;;;4993719;28;20372;-39
2022/11/29 02:32:16;;;;;;;38.13;14.48;;;9.00;99.90;;;;;;4974601;28;20129;-41
2022/11/29 02:34:56;;;;;;;40.80;14.65;;;9.00;99.90;;;;;;4980274;28;20440;-44
2022/11/29 02:37:39;;;;;;;32.05;12.82;;;9.00;99.90;;;;;;4992521;28;20030;-37
2022/11/29 02:40:26;;;;;;;27.00;13.05;;;9.00;99.90;;;;;;4983392;28;20490;-38
2022/11/29 02:43:28;;;;;;;24.70;12.52;;;9.10;99.90;;;;;;4989159;28;20506;-40
2022/11/29 02:46:33;;;;;;;34.83;13.23;;;9.10;99.90;;;;;;4992340;28;20118;-41
2022/11/29 02:49:36;;;;;;;31.80;12.43;;;9.00;99.90;;;;;;4985421;28;20549;-42
2022/11/29 02:52:07;;;;;;;45.00;14.80;;;9.00;99.90;;;;;;4942113;28;20482;-43
2022/11/29 02:54:46;;;;;;;32.65;11.95;;;8.90;99.90;;;;;;4992221;28;20474;-37
2022/11/29 02:57:32;;;;;;;40.00;12.50;;;8.90;99.90;;;;;;4991887;28;20466;-42
2022/11/29 03:00:09;;;;;;;31.10;12.68;;;8.90;99.90;;;;;;4992520;28;20027;-37
2022/11/29 03:02:50;;;;;;;33.65;13.93;;;8.90;99.90;;;;;;4973825;28;20475;-38
2022/11/29 03:05:19;;;;;;;105.85;14.02;;;8.90;99.90;;;;;;4981845;28;20026;-42
2022/11/29 03:08:09;;;;;;;29.20;12.55;;;8.90;99.90;;;;;;4973788;28;20018;-39
2022/11/29 03:10:50;;;;;;;35.05;12.73;;;8.90;99.90;;;;;;4981241;28;20034;-35
2022/11/29 03:13:57;;;;;;;38.20;13.68;;;8.90;99.90;;;;;;4977304;28;20479;-40
2022/11/29 03:16:50;;;;;;;32.92;13.10;;;8.90;99.90;;;;;;4994879;28;20046;-37
2022/11/29 03:19:40;;;;;;;35.92;13.75;;;8.90;99.90;;;;;;4996057;28;20045;-40
2022/11/29 03:22:09;;;;;;;40.17;12.82;;;8.90;99.90;;;;;;4989725;28;20039;-40
2022/11/29 03:25:26;;;;;;;34.58;12.38;;;8.80;99.90;;;;;;4990327;28;20046;-34
2022/11/29 03:28:01;;;;;;;34.05;13.68;;;8.90;99.90;;;;;;4916879;29;20055;-37
2022/11/29 03:30:31;;;;;;;42.50;12.65;;;8.80;99.90;;;;;;4913259;29;20039;-37
2022/11/29 03:33:31;;;;;;;41.72;13.60;;;8.80;99.90;;;;;;4962264;28;20054;-35
2022/11/29 03:36:22;;;;;;;41.38;13.82;;;8.80;99.90;;;;;;4995276;28;20041;-33
2022/11/29 03:38:51;;;;;;;26.90;11.07;;;8.80;99.90;;;;;;4990770;28;20125;-36
2022/11/29 03:41:42;;;;;;;26.65;11.25;;;8.80;99.90;;;;;;4994210;28;20505;-40
2022/11/29 03:44:18;;;;;;;31.13;11.70;;;8.80;99.90;;;;;;4987825;28;20513;-35
2022/11/29 03:46:55;;;;;;;48.50;12.93;;;8.80;99.90;;;;;;5002609;28;20034;-42
2022/11/29 03:49:32;;;;;;;35.60;11.93;;;8.80;99.90;;;;;;4996303;28;20121;-39
2022/11/29 03:52:22;;;;;;;24.02;11.52;;;8.80;99.90;;;;;;4995395;28;20030;-41
2022/11/29 03:55:06;;;;;;;50.90;12.85;;;8.80;99.90;;;;;;4996098;28;20034;-42
2022/11/29 03:58:03;;;;;;;43.20;12.55;;;8.80;99.90;;;;;;4994116;28;20042;-36
2022/11/29 04:00:53;;;;;;;34.65;13.52;;;8.70;99.90;;;;;;4992626;28;20383;-37
2022/11/29 04:03:40;;;;;;;32.30;12.90;;;8.70;99.90;;;;;;4987098;28;20030;-38
2022/11/29 04:06:14;;;;;;;34.35;13.00;;;8.70;99.90;;;;;;4989520;28;20505;-40
2022/11/29 04:09:15;;;;;;;27.25;11.75;;;8.70;99.90;;;;;;4994621;28;20042;-42
2022/11/29 04:12:18;;;;;;;39.75;12.75;;;8.70;99.90;;;;;;4995879;28;20035;-46
2022/11/29 04:15:02;;;;;;;36.67;13.00;;;8.80;99.90;;;;;;4994989;28;20034;-41
2022/11/29 04:17:37;;;;;;;30.70;11.07;;;8.80;99.90;;;;;;4995771;28;20062;-40
2022/11/29 04:20:36;;;;;;;32.38;12.80;;;8.70;99.90;;;;;;4986081;28;20034;-43
2022/11/29 04:23:10;;;;;;;29.90;11.60;;;8.80;99.90;;;;;;4986733;28;20065;-42
2022/11/29 04:26:03;;;;;;;40.08;12.98;;;8.80;99.90;;;;;;4993253;28;20035;-42
2022/11/29 04:28:43;;;;;;;27.38;13.10;;;8.70;99.90;;;;;;4994335;28;20030;-37
2022/11/29 04:31:14;;;;;;;33.92;13.50;;;8.70;99.90;;;;;;4974785;28;20109;-36
2022/11/29 04:33:57;;;;;;;28.48;11.25;;;8.70;99.90;;;;;;4995561;28;20045;-35
2022/11/29 04:36:32;;;;;;;38.25;12.73;;;8.70;99.90;;;;;;4975771;28;20537;-39
2022/11/29 04:39:08;;;;;;;35.40;13.13;;;8.60;99.90;;;;;;4995562;28;20041;-39
2022/11/29 04:42:07;;;;;;;39.20;12.80;;;8.60;99.90;;;;;;4993528;28;20023;-40
2022/11/29 04:44:55;;;;;;;38.55;13.25;;;8.60;99.90;;;;;;4994406;28;20031;-44
2022/11/29 04:47:42;;;;;;;45.53;13.75;;;8.60;99.90;;;;;;4992357;28;20513;-43
2022/11/29 04:50:36;;;;;;;63.22;12.43;;;8.60;99.90;;;;;;4989482;28;20030;-42
2022/11/29 04:53:42;;;;;;;33.10;12.50;;;8.60;99.90;;;;;;4975923;28;20061;-45
2022/11/29 04:56:39;;;;;;;27.50;10.48;;;8.50;99.90;;;;;;4977031;28;20396;-36
2022/11/29 04:59:10;;;;;;;35.83;12.73;;;8.50;99.90;;;;;;4975553;28;20038;-39
2022/11/29 05:05:11;;;;;;;42.28;11.45;;;8.50;99.90;;;;;;4995181;28;20513;-34
2022/11/29 05:08:10;;;;;;;24.88;11.10;;;8.60;99.90;;;;;;4994118;28;20038;-40
2022/11/29 05:11:08;;;;;;;28.27;10.90;;;8.60;99.90;;;;;;4994892;28;20033;-37
2022/11/29 05:14:03;;;;;;;37.85;12.32;;;8.60;99.90;;;;;;4994922;28;20486;-40
2022/11/29 05:16:47;;;;;;;47.20;11.27;;;8.70;99.90;;;;;;4992629;28;20117;-39
2022/11/29 05:19:50;;;;;;;37.33;10.50;;;8.60;99.90;;;;;;4993216;28;20470;-41
2022/11/29 05:22:49;;;;;;;44.50;11.70;;;8.60;99.90;;;;;;4990678;28;20034;-40
2022/11/29 05:25:24;;;;;;;30.10;10.82;;;8.60;99.90;;;;;;4992963;28;20401;-41
2022/11/29 05:28:29;;;;;;;31.05;10.80;;;8.60;99.90;;;;;;4990989;28;20026;-39
2022/11/29 05:31:19;;;;;;;29.67;10.45;;;8.60;99.90;;;;;;4979395;28;20513;-35
2022/11/29 05:34:19;;;;;;;27.88;11.07;;;8.70;99.90;;;;;;4994311;28;20073;-41
2022/11/29 05:37:14;;;;;;;24.33;10.63;;;8.70;99.90;;;;;;4979730;28;20033;-43
2022/11/29 05:39:56;;;;;;;28.63;10.77;;;8.70;99.90;;;;;;4991930;28;20042;-43
2022/11/29 05:42:49;;;;;;;18.38;9.00;;;8.60;99.90;;;;;;4983851;28;20546;-44
2022/11/29 05:45:33;;;;;;;23.98;9.90;;;8.60;99.90;;;;;;4994032;28;20062;-41
2022/11/29 05:48:16;;;;;;;19.13;8.68;;;8.60;99.90;;;;;;4991368;28;20038;-44
2022/11/29 05:50:41;;;;;;;25.17;10.75;;;8.70;99.90;;;;;;4993104;28;20062;-42
2022/11/29 05:53:22;;;;;;;22.95;10.65;;;8.60;99.90;;;;;;4993154;28;20498;-43
2022/11/29 05:56:25;;;;;;;31.05;10.73;;;8.60;99.90;;;;;;4985651;28;20041;-42
2022/11/29 05:58:58;;;;;;;27.90;10.63;;;8.70;99.90;;;;;;4991641;28;20041;-37
2022/11/29 06:01:26;;;;;;;21.95;10.18;;;8.60;99.90;;;;;;4990717;28;20523;-36
2022/11/29 06:04:08;;;;;;;32.67;11.30;;;8.50;99.90;;;;;;4994228;28;20479;-39
2022/11/29 06:07:14;;;;;;;27.83;10.68;;;8.60;99.90;;;;;;4992229;28;20112;-39
2022/11/29 06:09:54;;;;;;;26.02;10.43;;;8.60;99.90;;;;;;4990724;28;20031;-40
2022/11/29 06:12:22;;;;;;;25.63;10.32;;;8.50;99.90;;;;;;4981748;28;20073;-34
2022/11/29 06:14:51;;;;;;;28.88;10.57;;;8.60;99.90;;;;;;4991383;28;20085;-35
2022/11/29 06:17:54;;;;;;;37.38;10.82;;;8.60;99.90;;;;;;4991046;28;20399;-38
2022/11/29 06:20:32;;;;;;;34.08;10.48;;;8.60;99.90;;;;;;4983395;28;20036;-35
2022/11/29 06:22:57;;;;;;;50.05;9.57;;;8.50;99.90;;;;;;4993777;28;20491;-38
2022/11/29 06:25:32;;;;;;;30.88;9.20;;;8.60;99.90;;;;;;4993199;28;20050;-40
2022/11/29 06:28:21;;;;;;;29.40;9.43;;;8.60;99.90;;;;;;4993499;28;20445;-38
2022/11/29 06:31:03;;;;;;;28.00;9.10;;;8.60;99.90;;;;;;4993142;28;20372;-38
2022/11/29 06:34:00;;;;;;;28.90;9.30;;;8.60;99.90;;;;;;4976429;28;20030;-38
2022/11/29 06:36:43;;;;;;;39.15;8.90;;;8.60;99.90;;;;;;4993000;28;20037;-38
2022/11/29 06:39:10;;;;;;;26.95;8.05;;;8.60;99.90;;;;;;4993332;28;20034;-52
2022/11/29 06:41:36;;;;;;;34.05;8.38;;;8.60;99.90;;;;;;4994834;28;20026;-39
2022/11/29 06:44:02;;;;;;;30.17;8.57;;;8.60;99.90;;;;;;4991540;28;20570;-39
2022/11/29 06:46:28;;;;;;;41.85;8.65;;;8.50;99.90;;;;;;5004541;28;20754;-42
2022/11/29 06:49:18;;;;;;;25.27;7.88;;;8.50;99.90;;;;;;4993017;28;20045;-36
2022/11/29 06:52:04;;;;;;;25.85;8.43;;;8.50;99.90;;;;;;4993428;28;20070;-37
2022/11/29 06:55:06;;;;;;;29.52;8.93;;;8.50;99.90;;;;;;4992439;28;20493;-40
2022/11/29 06:57:59;;;;;;;22.73;8.88;;;8.50;99.90;;;;;;4955727;28;20517;-39
2022/11/29 07:00:34;;;;;;;23.27;9.85;;;8.60;99.90;;;;;;4992200;28;20046;-37
2022/11/29 07:03:20;;;;;;;20.90;10.13;;;8.60;99.90;;;;;;4993387;28;20039;-39
2022/11/29 07:05:46;;;;;;;17.67;9.27;;;8.60;99.90;;;;;;4991461;28;20058;-39
2022/11/29 07:08:18;;;;;;;23.13;9.73;;;8.60;99.90;;;;;;4993445;28;20084;-36
2022/11/29 07:10:45;;;;;;;23.02;9.93;;;8.70;99.90;;;;;;4992790;28;20057;-38
2022/11/29 07:13:12;;;;;;;25.77;10.37;;;8.60;99.90;;;;;;4993407;28;20433;-42
2022/11/29 07:15:51;;;;;;;17.33;8.57;;;8.60;99.90;;;;;;4991404;28;20045;-41
2022/11/29 07:18:22;;;;;;;18.42;8.82;;;8.60;99.90;;;;;;4975569;28;20568;-41
2022/11/29 07:21:15;;;;;;;18.20;8.98;;;8.60;99.90;;;;;;4992242;28;20447;-49
2022/11/29 07:24:00;;;;;;;27.55;9.52;;;8.60;99.90;;;;;;4988404;28;20030;-42
2022/11/29 07:26:44;;;;;;;24.10;9.70;;;8.70;99.90;;;;;;4992952;28;20038;-41
2022/11/29 07:29:26;;;;;;;24.02;10.32;;;8.60;99.90;;;;;;4992904;28;20564;-45
2022/11/29 07:32:33;;;;;;;25.35;8.93;;;8.60;99.90;;;;;;4977696;28;20045;-42
2022/11/29 07:35:11;;;;;;;19.90;8.68;;;8.60;99.90;;;;;;4997849;28;20470;-46
2022/11/29 07:38:09;;;;;;;21.20;9.35;;;8.40;99.90;;;;;;4994495;28;20544;-42
2022/11/29 07:40:40;;;;;;;24.27;10.25;;;8.40;99.90;;;;;;4984305;28;20045;-41
2022/11/29 07:43:32;;;;;;;25.92;10.23;;;8.40;99.90;;;;;;4993086;28;20487;-41
2022/11/29 07:45:59;;;;;;;15.70;7.75;;;8.40;99.90;;;;;;4986705;28;20030;-43
2022/11/29 07:48:25;;;;;;;21.17;8.90;;;8.40;99.90;;;;;;4995124;28;20138;-42
2022/11/29 07:50:52;;;;;;;20.45;8.38;;;8.40;99.90;;;;;;5002134;28;20033;-42
2022/11/29 07:53:20;;;;;;;21.98;8.80;;;8.50;99.90;;;;;;4992455;28;20383;-40
2022/11/29 07:55:46;;;;;;;27.48;8.02;;;8.50;99.90;;;;;;4958388;28;20462;-35
2022/11/29 07:58:14;;;;;;;27.92;8.65;;;8.50;99.90;;;;;;4976997;28;20479;-34
2022/11/29 08:00:41;;;;;;;23.88;8.20;;;8.50;99.90;;;;;;4976800;28;20395;-34
2022/11/29 08:03:09;;;;;;;16.08;7.22;;;8.40;99.90;;;;;;4976718;28;20031;-38
2022/11/29 08:05:37;;;;;;;16.90;8.27;;;8.40;99.90;;;;;;4979925;28;20022;-35
2022/11/29 08:08:03;;;;;;;22.10;7.53;;;8.50;99.90;;;;;;4995997;28;20490;-39
2022/11/29 08:10:29;;;;;;;26.27;7.30;;;8.50;99.90;;;;;;4995419;28;20746;-46
2022/11/29 08:12:54;;;;;;;18.75;8.05;;;8.40;99.90;;;;;;4995738;28;20080;-37
2022/11/29 08:15:22;;;;;;;31.08;7.45;;;8.40;99.90;;;;;;4996243;28;20064;-39
2022/11/29 08:17:48;;;;;;;29.80;7.45;;;8.40;99.90;;;;;;4995868;28;20026;-39
2022/11/29 08:20:15;;;;;;;20.05;7.20;;;8.30;99.90;;;;;;4994124;28;20069;-43
2022/11/29 08:22:41;;;;;;;21.43;7.27;;;8.30;99.90;;;;;;4995190;28;20505;-40
2022/11/29 08:25:07;;;;;;;16.15;7.10;;;8.40;99.90;;;;;;4994036;28;20066;-42
2022/11/29 08:27:34;;;;;;;20.80;7.78;;;8.40;99.90;;;;;;4992729;28;20486;-47
2022/11/29 08:30:21;;;;;;;20.42;7.40;;;8.40;99.90;;;;;;4988005;28;20470;-47
2022/11/29 08:32:47;;;;;;;22.75;7.70;;;8.40;99.90;;;;;;4999907;28;20393;-45
2022/11/29 08:35:13;;;;;;;19.73;6.60;;;8.40;99.90;;;;;;4990721;28;20061;-43
2022/11/29 08:37:39;;;;;;;23.52;7.68;;;8.40;99.90;;;;;;4995559;28;20517;-44
2022/11/29 08:40:05;;;;;;;23.95;7.55;;;8.30;99.90;;;;;;4994384;28;20076;-41
2022/11/29 08:42:31;;;;;;;22.20;7.78;;;8.30;99.90;;;;;;4995407;28;20106;-45
2022/11/29 08:44:56;;;;;;;20.00;7.80;;;8.30;99.90;;;;;;4995871;28;20481;-45
2022/11/29 08:47:37;;;;;;;23.65;7.63;;;8.40;99.90;;;;;;4995369;28;20061;-42
2022/11/29 08:50:08;;;;;;;18.23;7.07;;;8.40;99.90;;;;;;4994398;28;20058;-46
2022/11/29 08:55:22;;;;;;;30.27;7.65;;;8.50;99.90;;;;;;4994409;28;20129;-43
2022/11/29 08:57:50;;;;;;;30.93;8.27;;;8.50;99.90;;;;;;4995351;28;20034;-43
2022/11/29 09:00:17;;;;;;;24.92;7.82;;;8.50;99.90;;;;;;4993576;28;20304;-39
2022/11/29 09:02:43;;;;;;;18.47;8.57;;;8.40;99.90;;;;;;4994359;28;20072;-43
2022/11/29 09:05:10;;;;;;;27.83;8.00;;;8.40;99.90;;;;;;4994478;28;20470;-35
2022/11/29 09:07:36;;;;;;;31.35;8.73;;;8.40;99.90;;;;;;4994580;28;20018;-40
2022/11/29 09:10:04;;;;;;;31.25;8.75;;;8.40;99.90;;;;;;4994084;28;20031;-38
2022/11/29 09:12:31;;;;;;;;;;;8.40;99.90;;;;;;4995511;28;20077;-38
2022/11/29 09:14:57;;;;;;;29.83;9.05;;;8.50;99.90;;;;;;4994241;28;19909;-36
2022/11/29 09:17:22;;;;;;;26.88;8.70;;;8.50;99.90;;;;;;4981053;28;20483;-38
2022/11/29 09:19:48;;;;;;;16.90;7.32;;;8.50;99.90;;;;;;4994400;28;20117;-39
2022/11/29 09:22:14;;;;;;;23.27;8.93;;;8.50;99.90;;;;;;4991200;28;20027;-34
2022/11/29 09:24:41;;;;;;;17.90;7.78;;;8.60;99.90;;;;;;4994295;28;20054;-39
2022/11/29 09:27:06;;;;;;;25.90;8.55;;;8.60;99.90;;;;;;4994541;28;20081;-37
2022/11/29 09:29:32;;;;;;;27.65;10.02;;;8.70;99.90;;;;;;4979987;28;20082;-39
2022/11/29 09:31:57;;;;;;;21.17;8.63;;;8.60;99.90;;;;;;4979827;28;20490;-42
2022/11/29 09:34:23;;;;;;;21.58;8.55;;;8.70;99.90;;;;;;4994362;28;20109;-43
2022/11/29 09:36:49;;;;;;;23.67;8.15;;;8.80;99.90;;;;;;4993453;28;20026;-43
2022/11/29 09:39:15;;;;;;;15.70;8.40;;;8.80;99.90;;;;;;4994317;28;20029;-44
2022/11/29 09:42:06;;;;;;;18.60;7.15;;;8.90;99.90;;;;;;4994228;28;20030;-46
2022/11/29 09:44:42;;;;;;;26.40;9.23;;;9.00;99.90;;;;;;4994402;28;20494;-45
2022/11/29 09:47:35;;;;;;;29.17;9.00;;;9.00;99.90;;;;;;4992870;28;20031;-43
2022/11/29 09:50:22;;;;;;;18.42;8.68;;;9.00;99.90;;;;;;4991372;28;20541;-45
2022/11/29 09:53:02;;;;;;;25.10;9.23;;;9.00;99.90;;;;;;4986824;28;20112;-43
2022/11/29 09:55:56;;;;;;;17.50;7.93;;;9.00;99.90;;;;;;4981156;28;20437;-44
2022/11/29 09:58:25;;;;;;;26.00;7.75;;;9.10;99.90;;;;;;4987323;28;20487;-44
2022/11/29 10:00:59;;;;;;;24.17;7.78;;;9.10;99.90;;;;;;4986358;28;20204;-43
2022/11/29 10:03:39;;;;;;;30.50;9.65;;;9.10;99.90;;;;;;4974574;28;20030;-46
2022/11/29 10:06:46;;;;;;;20.70;8.23;;;9.10;99.90;;;;;;4984517;28;20026;-42
2022/11/29 10:09:29;;;;;;;26.90;8.98;;;9.20;99.90;;;;;;4970748;28;20062;-43
2022/11/29 10:12:12;;;;;;;22.67;9.13;;;9.20;99.90;;;;;;4993068;28;20541;-42
2022/11/29 10:14:47;;;;;;;26.80;10.55;;;9.30;99.90;;;;;;4991225;28;20053;-44
2022/11/29 10:17:22;;;;;;;28.25;11.10;;;9.30;99.90;;;;;;4992582;28;20454;-43
2022/11/29 10:19:57;;;;;;;27.52;9.95;;;9.30;99.90;;;;;;4990053;28;20501;-46
2022/11/29 10:22:31;;;;;;;24.27;9.88;;;9.30;99.90;;;;;;4993743;28;20485;-44
2022/11/29 10:24:59;;;;;;;28.20;10.77;;;9.40;99.90;;;;;;4989194;28;20047;-45
2022/11/29 10:27:28;;;;;;;21.90;9.55;;;9.40;99.90;;;;;;4991061;28;20538;-37
2022/11/29 10:29:54;;;;;;;26.85;8.68;;;9.40;99.90;;;;;;4991578;28;20030;-48
2022/11/29 10:32:24;;;;;;;26.30;8.85;;;9.40;99.90;;;;;;4993531;28;20490;-44
2022/11/29 10:34:50;;;;;;;27.13;9.18;;;9.30;99.90;;;;;;4991702;28;20474;-44
2022/11/29 10:37:20;;;;;;;18.48;8.93;;;9.30;99.90;;;;;;4991023;28;20057;-45
2022/11/29 10:39:58;;;;;;;23.15;8.40;;;9.30;99.90;;;;;;4987348;28;20032;-48
2022/11/29 10:45:15;;;;;;;19.42;9.63;;;9.30;99.90;;;;;;4988985;28;20442;-43
2022/11/29 10:47:44;;;;;;;22.38;8.30;;;9.40;99.90;;;;;;4991015;28;20493;-43
2022/11/29 10:50:25;;;;;;;18.73;8.77;;;9.40;99.90;;;;;;4991266;28;20109;-47
2022/11/29 10:53:13;;;;;;;19.67;9.15;;;9.40;99.90;;;;;;4973147;28;20376;-42
2022/11/29 10:55:44;;;;;;;23.52;8.95;;;9.50;99.90;;;;;;4958713;28;20426;-40
2022/11/29 10:58:18;;;;;;;27.85;8.95;;;9.70;99.90;;;;;;4988010;28;20469;-45
2022/11/29 11:00:51;;;;;;;23.52;8.57;;;9.80;99.90;;;;;;4987849;28;20029;-48
2022/11/29 11:03:38;;;;;;;25.13;9.82;;;9.80;99.90;;;;;;4991446;28;20026;-48
2022/11/29 11:06:27;;;;;;;26.53;9.13;;;9.90;99.90;;;;;;4993501;28;20529;-43
2022/11/29 11:08:55;;;;;;;26.30;9.45;;;10.00;99.90;;;;;;4992801;28;20479;-43
2022/11/29 11:11:25;;;;;;;;;;;10.10;99.90;;;;;;4991573;28;20034;-45
2022/11/29 11:14:04;;;;;;;25.48;7.55;;;10.00;99.90;;;;;;4992370;28;20000;-44
2022/11/29 11:16:30;;;;;;;22.73;9.05;;;10.00;99.90;;;;;;4993132;28;20450;-49
2022/11/29 11:18:56;;;;;;;19.80;8.25;;;10.10;99.90;;;;;;4990620;28;20066;-43
2022/11/29 11:21:24;;;;;;;18.30;8.40;;;10.00;99.90;;;;;;4990049;28;20105;-42
2022/11/29 11:24:00;;;;;;;19.35;8.52;;;10.00;99.90;;;;;;4989026;28;20022;-45
2022/11/29 11:26:39;;;;;;;20.00;8.73;;;9.90;99.90;;;;;;4987397;28;20071;-36
2022/11/29 11:29:05;;;;;;;20.65;8.93;;;9.90;99.90;;;;;;4963073;28;20498;-45
2022/11/29 11:31:36;;;;;;;26.83;8.70;;;9.90;99.90;;;;;;4990433;28;20034;-43
2022/11/29 11:34:27;;;;;;;21.92;8.40;;;10.00;99.90;;;;;;4995509;28;20045;-44
2022/11/29 11:37:11;;;;;;;19.33;8.00;;;10.00;99.90;;;;;;4982924;28;20490;-39
2022/11/29 11:40:16;;;;;;;20.60;8.80;;;10.10;99.90;;;;;;4992938;28;20121;-44
2022/11/29 11:42:42;;;;;;;29.77;9.40;;;10.20;99.90;;;;;;4994330;28;20033;-44
2022/11/29 11:45:11;;;;;;;27.27;10.02;;;10.40;99.90;;;;;;4999370;28;20026;-48
2022/11/29 11:47:46;;;;;;;19.88;8.48;;;10.50;99.90;;;;;;5000399;28;20022;-43
2022/11/29 11:50:36;;;;;;;18.33;8.88;;;10.50;99.90;;;;;;4992489;28;20406;-42
2022/11/29 11:53:17;;;;;;;25.67;8.27;;;10.50;99.90;;;;;;4990259;28;20490;-44
2022/11/29 11:55:52;;;;;;;36.38;8.95;;;10.50;99.90;;;;;;4995704;28;20408;-42
2022/11/29 11:58:22;;;;;;;19.13;8.23;;;10.50;99.90;;;;;;4978526;28;20516;-45
2022/11/29 12:01:11;;;;;;;16.25;8.13;;;10.50;99.90;;;;;;4996050;28;20534;-47
2022/11/29 12:03:46;;;;;;;22.70;9.30;;;10.50;99.90;;;;;;4996250;28;20483;-48
2022/11/29 12:06:27;;;;;;;16.08;7.53;;;10.40;99.90;;;;;;4992192;28;20041;-45
2022/11/29 12:09:15;;;;;;;22.30;9.32;;;10.40;99.90;;;;;;4990609;28;20482;-46
2022/11/29 12:12:00;;;;;;;18.15;9.57;;;10.30;99.90;;;;;;4993093;28;20030;-43
2022/11/29 12:14:37;;;;;;;21.70;9.18;;;10.30;99.90;;;;;;4989668;28;20489;-45
2022/11/29 12:17:37;;;;;;;26.70;8.93;;;10.30;99.90;;;;;;4993200;28;20498;-46
2022/11/29 12:20:24;;;;;;;16.02;9.85;;;10.50;99.90;;;;;;4988016;28;20042;-46
2022/11/29 12:22:59;;;;;;;14.65;6.47;;;10.30;99.90;;;;;;4987698;28;20031;-42
2022/11/29 12:25:39;;;;;;;17.58;8.05;;;10.30;99.90;;;;;;4989530;28;20576;-43
2022/11/29 12:28:10;;;;;;;23.30;9.00;;;10.30;99.90;;;;;;4995353;28;20029;-48
2022/11/29 12:30:45;;;;;;;16.98;7.32;;;10.30;99.90;;;;;;4996316;28;20490;-46
2022/11/29 12:33:30;;;;;;;24.83;10.27;;;10.30;99.90;;;;;;4995651;28;20034;-46
2022/11/29 12:36:17;;;;;;;24.48;8.43;;;10.20;99.90;;;;;;4995734;28;20050;-46
2022/11/29 12:39:00;;;;;;;21.73;9.50;;;10.20;99.90;;;;;;4995476;28;20081;-47
2022/11/29 12:41:42;;;;;;;25.40;9.27;;;10.30;99.90;;;;;;4994523;28;20499;-45
2022/11/29 12:44:15;;;;;;;17.52;7.40;;;10.30;99.90;;;;;;4990546;28;20018;-50
2022/11/29 12:46:48;;;;;;;22.50;9.40;;;10.40;99.90;;;;;;4995500;28;20038;-42
2022/11/29 12:49:33;;;;;;;20.00;8.57;;;10.30;99.90;;;;;;4995613;28;20026;-45
2022/11/29 12:52:34;;;;;;;24.50;9.85;;;10.40;99.90;;;;;;4995364;28;20038;-44
2022/11/29 12:55:15;;;;;;;23.48;9.88;;;10.50;99.90;;;;;;4984629;28;20046;-46
2022/11/29 12:58:10;;;;;;;26.02;9.10;;;10.50;99.90;;;;;;4995321;28;20037;-42
2022/11/29 13:00:46;;;;;;;18.77;8.23;;;10.50;99.90;;;;;;4994313;28;20065;-44
2022/11/29 13:03:41;;;;;;;24.65;10.23;;;10.50;99.90;;;;;;4995179;28;20035;-43
2022/11/29 13:06:20;;;;;;;20.23;8.43;;;10.50;99.90;;;;;;4944053;28;20070;-45
2022/11/29 13:09:14;;;;;;;20.58;8.60;;;10.40;99.90;;;;;;4975515;28;20510;-50
2022/11/29 13:12:03;;;;;;;24.70;9.80;;;10.50;99.90;;;;;;4978618;28;20394;-44
2022/11/29 13:14:44;;;;;;;21.10;9.40;;;10.50;99.90;;;;;;4994724;28;20414;-48
2022/11/29 13:17:36;;;;;;;16.73;8.65;;;10.50;99.90;;;;;;4993911;28;20101;-47
2022/11/29 13:20:21;;;;;;;20.13;9.77;;;10.40;99.90;;;;;;4993739;28;20074;-45
2022/11/29 13:23:18;;;;;;;19.10;8.95;;;10.30;99.90;;;;;;4997535;28;20557;-46
2022/11/29 13:25:49;;;;;;;20.88;8.77;;;10.20;99.90;;;;;;4977996;28;20181;-45
2022/11/29 13:28:34;;;;;;;25.50;8.68;;;10.30;99.90;;;;;;4985931;28;20026;-40
2022/11/29 13:31:03;;;;;;;19.80;7.88;;;10.30;99.90;;;;;;4981859;28;20034;-44
2022/11/29 13:33:59;;;;;;;24.13;8.57;;;10.30;99.90;;;;;;4986604;28;20022;-41
2022/11/29 13:36:50;;;;;;;19.90;9.38;;;10.20;99.90;;;;;;5009965;28;20478;-45
2022/11/29 13:39:53;;;;;;;21.85;9.82;;;10.20;99.90;;;;;;5014251;28;20478;-44
2022/11/29 13:42:34;;;;;;;26.33;8.52;;;10.20;99.90;;;;;;5013857;28;20050;-44
2022/11/29 13:45:22;;;;;;;23.63;9.23;;;10.20;99.90;;;;;;5014003;28;20018;-47
2022/11/29 13:48:32;;;;;;;18.63;8.63;;;10.20;99.90;;;;;;5013878;28;20482;-45